createdAt,value
2022-09-22T00:01:48.209Z,99312.84
2022-09-22T00:04:16.511Z,99314.34
2022-09-22T00:06:47.519Z,99291.88
2022-09-22T00:09:21.298Z,99305.97
2022-09-22T00:11:51.490Z,99309.16
2022-09-22T00:14:22.819Z,99314.09
2022-09-22T00:16:54.742Z,99296.25
2022-09-22T00:19:25.116Z,99304.84
2022-09-22T00:21:54.070Z,99302.34
2022-09-22T00:24:23.827Z,99308.09
2022-09-22T00:26:56.556Z,99299.19
2022-09-22T00:29:25.242Z,99295.19
2022-09-22T00:31:55.715Z,99294.53
2022-09-22T00:34:27.216Z,99297.38
2022-09-22T00:36:56.116Z,99296.38
2022-09-22T00:39:24.426Z,99298.72
2022-09-22T00:41:54.971Z,99295.19
2022-09-22T00:44:33.983Z,99294.91
2022-09-22T00:47:13.784Z,99298.38
2022-09-22T00:49:48.158Z,99298.25
2022-09-22T00:52:25.565Z,99297.28
2022-09-22T00:54:56.794Z,99293.09
2022-09-22T00:57:28.781Z,99298.44
2022-09-22T00:59:57.192Z,99283.91
2022-09-22T01:02:26.815Z,99303.59
2022-09-22T01:04:55.264Z,99306.09
2022-09-22T01:07:28.280Z,99298.06
2022-09-22T01:09:57.481Z,99283.19
2022-09-22T01:12:27.707Z,99302.28
2022-09-22T01:15:14.065Z,99296.84
2022-09-22T01:17:57.141Z,99299.50
2022-09-22T01:20:56.080Z,99298.56
2022-09-22T01:23:48.927Z,99299.91
2022-09-22T01:26:36.443Z,99291.06
2022-09-22T01:29:25.804Z,99301.78
2022-09-22T01:32:04.782Z,99307.84
2022-09-22T01:34:42.899Z,99303.63
2022-09-22T01:37:18.261Z,99306.31
2022-09-22T01:39:50.026Z,99309.50
2022-09-22T01:42:28.051Z,99306.66
2022-09-22T01:45:02.674Z,99302.09
2022-09-22T01:47:40.547Z,99307.31
2022-09-22T01:50:13.823Z,99309.66
2022-09-22T01:52:43.971Z,99307.66
2022-09-22T01:55:17.538Z,99308.13
2022-09-22T01:57:52.060Z,99306.63
2022-09-22T02:00:21.046Z,99302.13
2022-09-22T02:02:55.359Z,99304.78
2022-09-22T02:05:31.480Z,99304.63
2022-09-22T02:08:05.838Z,99303.97
2022-09-22T02:10:41.807Z,99309.78
2022-09-22T02:13:10.118Z,99298.09
2022-09-22T02:15:56.412Z,99291.75
2022-09-22T02:18:33.150Z,99313.34
2022-09-22T02:21:02.393Z,99312.81
2022-09-22T02:23:32.536Z,99306.47
2022-09-22T02:26:02.709Z,99305.63
2022-09-22T02:28:33.535Z,99293.59
2022-09-22T02:31:19.638Z,99302.78
2022-09-22T02:33:51.873Z,99298.94
2022-09-22T02:36:45.386Z,99301.63
2022-09-22T02:39:19.847Z,99291.25
2022-09-22T02:42:01.791Z,99290.75
2022-09-22T02:44:37.672Z,99293.41
2022-09-22T02:47:12.011Z,99287.75
2022-09-22T02:49:43.466Z,99285.56
2022-09-22T02:52:13.794Z,99289.94
2022-09-22T02:54:42.110Z,99290.25
2022-09-22T02:57:11.097Z,99279.72
2022-09-22T02:59:39.406Z,99285.22
2022-09-22T03:02:07.907Z,99268.84
2022-09-22T03:04:36.605Z,99282.03
2022-09-22T03:07:07.236Z,99283.22
2022-09-22T03:09:35.522Z,99253.66
2022-09-22T03:12:03.860Z,99276.88
2022-09-22T03:14:32.078Z,99275.72
2022-09-22T03:17:00.658Z,99277.88
2022-09-22T03:19:29.316Z,99282.56
2022-09-22T03:21:57.702Z,99271.34
2022-09-22T03:24:27.523Z,99279.19
2022-09-22T03:26:55.787Z,99285.41
2022-09-22T03:29:24.067Z,99272.72
2022-09-22T03:31:52.451Z,99273.88
2022-09-22T03:34:20.746Z,99286.72
2022-09-22T03:36:49.100Z,99274.81
2022-09-22T03:39:17.599Z,99282.50
2022-09-22T03:41:47.594Z,99275.19
2022-09-22T03:44:15.943Z,99271.03
2022-09-22T03:46:44.973Z,99280.53
2022-09-22T03:49:13.332Z,99279.56
2022-09-22T03:51:41.772Z,99274.38
2022-09-22T03:54:10.194Z,99279.41
2022-09-22T03:56:39.156Z,99274.19
2022-09-22T03:59:10.298Z,99273.63
2022-09-22T04:01:39.071Z,99277.16
2022-09-22T04:04:07.799Z,99263.13
2022-09-22T04:06:36.709Z,99271.31
2022-09-22T04:09:05.518Z,99277.69
2022-09-22T04:11:33.935Z,99282.19
2022-09-22T04:14:03.934Z,99276.47
2022-09-22T04:16:33.914Z,99277.50
2022-09-22T04:19:04.932Z,99281.66
2022-09-22T04:21:33.466Z,99275.84
2022-09-22T04:24:02.184Z,99274.63
2022-09-22T04:26:30.594Z,99268.44
2022-09-22T04:28:58.983Z,99274.94
2022-09-22T04:31:27.380Z,99271.81
2022-09-22T04:33:57.233Z,99270.28
2022-09-22T04:36:25.655Z,99277.16
2022-09-22T04:38:55.359Z,99269.50
2022-09-22T04:41:23.698Z,99271.31
2022-09-22T04:43:51.985Z,99251.84
2022-09-22T04:46:20.394Z,99273.47
2022-09-22T04:48:48.854Z,99260.38
2022-09-22T04:51:18.582Z,99279.47
2022-09-22T04:53:47.018Z,99267.94
2022-09-22T04:56:17.483Z,99275.00
2022-09-22T04:58:45.743Z,99267.69
2022-09-22T05:01:14.079Z,99276.31
2022-09-22T05:03:42.394Z,99279.66
2022-09-22T05:06:10.623Z,99280.63
2022-09-22T05:08:40.277Z,99280.13
2022-09-22T05:11:09.672Z,99274.94
2022-09-22T05:13:41.052Z,99275.78
2022-09-22T05:16:09.801Z,99286.78
2022-09-22T05:18:39.516Z,99274.47
2022-09-22T05:21:10.178Z,99283.56
2022-09-22T05:23:40.395Z,99285.63
2022-09-22T05:26:08.696Z,99263.84
2022-09-22T05:28:39.126Z,99293.56
2022-09-22T05:31:07.564Z,99290.66
2022-09-22T05:33:35.835Z,99292.81
2022-09-22T05:36:04.861Z,99295.13
2022-09-22T05:38:33.074Z,99297.63
2022-09-22T05:41:05.794Z,99300.91
2022-09-22T05:43:34.148Z,99296.19
2022-09-22T05:46:02.452Z,99302.66
2022-09-22T05:48:31.549Z,99298.81
2022-09-22T05:50:59.998Z,99300.41
2022-09-22T05:53:28.419Z,99294.78
2022-09-22T05:55:57.288Z,99294.00
2022-09-22T05:58:27.106Z,99292.53
2022-09-22T06:00:57.940Z,99303.94
2022-09-22T06:03:31.901Z,99280.56
2022-09-22T06:06:00.195Z,99288.59
2022-09-22T06:08:28.599Z,99297.28
2022-09-22T06:10:56.992Z,99294.25
2022-09-22T06:13:26.726Z,99303.06
2022-09-22T06:15:55.052Z,99296.88
2022-09-22T06:18:25.207Z,99286.47
2022-09-22T06:20:56.298Z,99277.69
2022-09-22T06:23:26.303Z,99261.59
2022-09-22T06:25:58.324Z,99273.16
2022-09-22T06:28:27.972Z,99268.53
2022-09-22T06:31:00.554Z,99264.69
2022-09-22T06:33:29.876Z,99256.78
2022-09-22T06:35:58.839Z,99255.03
2022-09-22T06:38:31.930Z,99258.03
2022-09-22T06:41:01.744Z,99250.34
2022-09-22T06:43:37.748Z,99250.66
2022-09-22T06:46:10.807Z,99252.06
2022-09-22T06:48:39.217Z,99247.53
2022-09-22T06:51:07.606Z,99253.06
2022-09-22T06:53:36.053Z,99250.19
2022-09-22T06:56:05.915Z,99253.41
2022-09-22T06:58:58.566Z,99239.63
2022-09-22T07:01:25.422Z,99259.94
2022-09-22T07:03:54.564Z,99255.31
2022-09-22T07:06:23.715Z,99256.72
2022-09-22T07:08:51.954Z,99257.34
2022-09-22T07:11:23.708Z,99252.47
2022-09-22T07:13:54.898Z,99248.94
2022-09-22T07:16:25.726Z,99244.88
2022-09-22T07:18:55.518Z,99237.88
2022-09-22T07:21:27.392Z,99247.72
2022-09-22T07:23:57.223Z,99233.66
2022-09-22T07:26:30.897Z,99240.25
2022-09-22T07:29:02.718Z,99233.56
2022-09-22T07:31:34.594Z,99223.56
2022-09-22T07:34:03.005Z,99218.44
2022-09-22T07:36:32.529Z,99222.00
2022-09-22T07:39:05.137Z,99213.84
2022-09-22T07:41:41.345Z,99214.94
2022-09-22T07:44:29.997Z,99213.09
2022-09-22T07:46:59.380Z,99192.03
2022-09-22T07:49:30.331Z,99184.06
2022-09-22T07:51:59.032Z,99198.56
2022-09-22T07:54:28.406Z,99197.09
2022-09-22T07:56:58.774Z,99201.00
2022-09-22T07:59:31.130Z,99196.09
2022-09-22T08:02:02.277Z,99199.19
2022-09-22T08:04:31.849Z,99182.72
2022-09-22T08:07:00.224Z,99181.25
2022-09-22T08:09:29.637Z,99181.53
2022-09-22T08:11:57.939Z,99181.00
2022-09-22T08:14:26.704Z,99174.34
2022-09-22T08:16:57.259Z,99165.81
2022-09-22T08:19:25.600Z,99168.53
2022-09-22T08:21:55.012Z,99152.22
2022-09-22T08:24:24.152Z,99154.72
2022-09-22T08:26:56.055Z,99150.78
2022-09-22T08:29:25.327Z,99144.53
2022-09-22T08:31:54.152Z,99141.38
2022-09-22T08:34:23.945Z,99148.84
2022-09-22T08:36:52.099Z,99137.22
2022-09-22T08:39:21.100Z,99136.03
2022-09-22T08:41:59.913Z,99140.19
2022-09-22T08:44:29.429Z,99137.00
2022-09-22T08:47:00.879Z,99135.53
2022-09-22T08:49:53.746Z,99146.31
2022-09-22T08:52:27.928Z,99113.69
2022-09-22T08:54:59.599Z,99131.59
2022-09-22T08:57:46.144Z,99117.94
2022-09-22T09:00:15.644Z,99122.94
2022-09-22T09:02:45.504Z,99127.09
2022-09-22T09:05:39.140Z,99126.13
2022-09-22T09:08:21.620Z,99120.50
2022-09-22T09:10:54.588Z,99123.34
2022-09-22T09:13:34.649Z,99127.44
2022-09-22T09:16:07.652Z,99116.59
2022-09-22T09:18:41.029Z,99114.78
2022-09-22T09:21:11.127Z,99115.50
2022-09-22T09:26:35.388Z,99099.81
2022-09-22T09:29:06.339Z,99098.53
2022-09-22T09:31:38.275Z,99103.31
2022-09-22T09:34:08.787Z,99101.19
2022-09-22T09:36:42.058Z,99103.38
2022-09-22T09:39:14.197Z,99099.53
2022-09-22T09:41:46.686Z,99098.00
2022-09-22T09:44:20.474Z,99098.13
2022-09-22T09:46:55.613Z,99093.78
2022-09-22T09:49:24.283Z,99096.50
2022-09-22T09:51:54.306Z,99103.34
2022-09-22T09:54:25.446Z,99098.88
2022-09-22T09:57:04.668Z,99094.22
2022-09-22T09:59:51.878Z,99084.66
2022-09-22T10:02:22.126Z,99083.16
2022-09-22T10:04:53.604Z,99073.19
2022-09-22T10:07:22.320Z,99094.16
2022-09-22T10:09:52.312Z,99088.50
2022-09-22T10:12:25.163Z,99084.41
2022-09-22T10:14:53.811Z,99095.19
2022-09-22T10:17:22.686Z,99090.63
2022-09-22T10:19:52.996Z,99093.31
2022-09-22T10:22:25.588Z,99079.56
2022-09-22T10:24:57.060Z,99079.38
2022-09-22T10:27:25.910Z,99074.94
2022-09-22T10:30:12.628Z,99076.72
2022-09-22T10:32:41.216Z,99060.22
2022-09-22T10:35:24.072Z,99066.91
2022-09-22T10:37:52.624Z,99066.13
2022-09-22T10:40:22.789Z,99062.94
2022-09-22T10:42:52.728Z,99063.34
2022-09-22T10:45:22.704Z,99051.34
2022-09-22T10:47:55.961Z,99050.59
2022-09-22T10:50:35.661Z,99048.25
2022-09-22T10:53:11.970Z,99048.53
2022-09-22T10:55:47.243Z,99050.34
2022-09-22T10:58:27.225Z,99038.13
2022-09-22T11:01:01.822Z,99058.34
2022-09-22T11:03:43.415Z,99045.06
2022-09-22T11:06:41.425Z,99039.47
2022-09-22T11:09:34.158Z,99050.28
2022-09-22T11:12:20.024Z,99041.69
2022-09-22T11:15:03.332Z,99048.53
2022-09-22T11:17:53.288Z,99044.28
2022-09-22T11:20:30.062Z,99037.16
2022-09-22T11:23:16.408Z,99038.22
2022-09-22T11:25:51.866Z,99034.94
2022-09-22T11:28:30.428Z,99040.69
2022-09-22T11:30:59.049Z,99029.34
2022-09-22T11:33:36.720Z,99025.50
2022-09-22T11:36:08.585Z,99024.00
2022-09-22T11:38:53.606Z,99017.72
2022-09-22T11:41:27.651Z,99017.88
2022-09-22T11:44:14.343Z,99015.94
2022-09-22T11:46:52.182Z,99013.06
2022-09-22T11:49:26.110Z,99006.16
2022-09-22T11:52:01.248Z,99009.72
2022-09-22T11:54:38.118Z,99000.25
2022-09-22T11:57:09.260Z,99006.72
2022-09-22T11:59:42.976Z,98998.56
2022-09-22T12:02:17.208Z,98993.28
2022-09-22T12:04:49.479Z,98994.66
2022-09-22T12:07:24.115Z,99004.38
2022-09-22T12:09:55.032Z,98990.78
2022-09-22T12:12:25.188Z,98999.09
2022-09-22T12:14:59.664Z,98995.19
2022-09-22T12:17:35.293Z,98995.91
2022-09-22T12:20:09.931Z,98995.78
2022-09-22T12:22:50.142Z,98993.78
2022-09-22T12:25:47.673Z,98989.72
2022-09-22T12:28:17.786Z,98991.88
2022-09-22T12:30:58.507Z,98983.00
2022-09-22T12:33:29.414Z,98981.44
2022-09-22T12:35:57.920Z,98970.94
2022-09-22T12:38:26.180Z,98980.97
2022-09-22T12:40:59.793Z,98971.53
2022-09-22T12:43:29.072Z,98977.00
2022-09-22T12:46:03.821Z,98972.59
2022-09-22T12:48:33.910Z,98967.56
2022-09-22T12:51:22.748Z,98968.91
2022-09-22T12:53:51.116Z,98969.69
2022-09-22T12:56:45.138Z,98962.25
2022-09-22T12:59:32.297Z,98962.47
2022-09-22T13:02:15.887Z,98965.03
2022-09-22T13:05:01.515Z,98960.22
2022-09-22T13:07:36.291Z,98959.00
2022-09-22T13:10:21.509Z,98960.59
2022-09-22T13:13:05.692Z,98952.91
2022-09-22T13:15:56.847Z,98953.63
2022-09-22T13:18:28.948Z,98958.31
2022-09-22T13:20:57.290Z,98949.53
2022-09-22T13:23:29.147Z,98943.63
2022-09-22T13:26:06.005Z,98945.09
2022-09-22T13:28:33.987Z,98946.63
2022-09-22T13:31:05.946Z,98948.81
2022-09-22T13:33:35.491Z,98950.75
2022-09-22T13:36:05.478Z,98940.88
2022-09-22T13:38:37.844Z,98917.94
2022-09-22T13:41:11.461Z,98939.38
2022-09-22T13:43:41.087Z,98942.78
2022-09-22T13:46:18.916Z,98935.50
2022-09-22T13:48:47.057Z,98939.03
2022-09-22T13:51:16.745Z,98938.66
2022-09-22T13:53:49.038Z,98926.03
2022-09-22T13:56:21.991Z,98927.88
2022-09-22T13:58:54.410Z,98917.06
2022-09-22T14:01:23.454Z,98916.59
2022-09-22T14:03:52.327Z,98914.00
2022-09-22T14:06:21.074Z,98911.03
2022-09-22T14:08:51.695Z,98916.75
2022-09-22T14:11:20.590Z,98911.59
2022-09-22T14:13:58.635Z,98913.59
2022-09-22T14:16:29.379Z,98904.47
2022-09-22T14:18:59.824Z,98907.03
2022-09-22T14:21:27.869Z,98883.59
2022-09-22T14:23:57.769Z,98898.81
2022-09-22T14:26:28.108Z,98889.41
2022-09-22T14:28:59.078Z,98899.84
2022-09-22T14:31:28.437Z,98893.13
2022-09-22T14:33:57.187Z,98897.16
2022-09-22T14:36:26.259Z,98896.03
2022-09-22T14:39:09.541Z,98889.47
2022-09-22T14:41:39.620Z,98888.38
2022-09-22T14:44:22.640Z,98890.75
2022-09-22T14:46:50.653Z,98897.16
2022-09-22T14:49:36.309Z,98892.44
2022-09-22T14:52:06.125Z,98882.72
2022-09-22T14:54:36.007Z,98875.81
2022-09-22T14:57:06.582Z,98871.91
2022-09-22T14:59:53.376Z,98873.22
2022-09-22T15:02:33.917Z,98874.53
2022-09-22T15:05:03.541Z,98870.69
2022-09-22T15:07:32.399Z,98878.84
2022-09-22T15:10:03.423Z,98871.69
2022-09-22T15:12:39.320Z,98866.13
2022-09-22T15:15:18.158Z,98857.22
2022-09-22T15:18:04.818Z,98849.66
2022-09-22T15:20:34.891Z,98859.84
2022-09-22T15:23:03.323Z,98855.25
2022-09-22T15:25:32.729Z,98852.47
2022-09-22T15:28:10.290Z,98854.91
2022-09-22T15:30:38.304Z,98850.44
2022-09-22T15:33:06.806Z,98852.72
2022-09-22T15:35:37.319Z,98846.72
2022-09-22T15:38:06.758Z,98864.66
2022-09-22T15:40:36.287Z,98850.25
2022-09-22T15:43:12.995Z,98842.41
2022-09-22T15:45:48.017Z,98841.66
2022-09-22T15:48:27.665Z,98835.88
2022-09-22T15:50:56.263Z,98837.50
2022-09-22T15:53:26.803Z,98827.72
2022-09-22T15:55:59.780Z,98832.66
2022-09-22T15:58:31.540Z,98831.31
2022-09-22T16:00:59.578Z,98828.88
2022-09-22T16:03:27.772Z,98803.13
2022-09-22T16:05:57.742Z,98825.41
2022-09-22T16:08:28.426Z,98823.09
2022-09-22T16:10:58.270Z,98819.66
2022-09-22T16:13:27.940Z,98814.50
2022-09-22T16:15:56.052Z,98810.22
2022-09-22T16:18:24.106Z,98811.19
2022-09-22T16:20:52.145Z,98813.09
2022-09-22T16:23:20.378Z,98817.31
2022-09-22T16:25:53.299Z,98813.81
2022-09-22T16:28:22.610Z,98820.53
2022-09-22T16:30:50.872Z,98815.09
2022-09-22T16:33:18.871Z,98817.59
2022-09-22T16:35:49.255Z,98807.09
2022-09-22T16:38:17.237Z,98811.16
2022-09-22T16:41:00.322Z,98805.78
2022-09-22T16:43:30.157Z,98811.25
2022-09-22T16:46:15.946Z,98802.75
2022-09-22T16:48:43.947Z,98804.66
2022-09-22T16:51:15.518Z,98805.28
2022-09-22T16:53:46.675Z,98811.94
2022-09-22T16:56:14.680Z,98815.09
2022-09-22T16:58:44.027Z,98807.97
2022-09-22T17:01:18.983Z,98807.63
2022-09-22T17:03:49.350Z,98809.38
2022-09-22T17:06:18.533Z,98810.41
2022-09-22T17:08:46.718Z,98807.94
2022-09-22T17:11:15.204Z,98804.72
2022-09-22T17:13:44.996Z,98809.34
2022-09-22T17:16:21.137Z,98800.72
2022-09-22T17:18:50.825Z,98799.44
2022-09-22T17:21:21.957Z,98802.63
2022-09-22T17:23:54.813Z,98803.88
2022-09-22T17:26:22.866Z,98800.72
2022-09-22T17:28:52.663Z,98799.53
2022-09-22T17:31:21.160Z,98804.16
2022-09-22T17:33:52.677Z,98802.69
2022-09-22T17:36:21.969Z,98800.94
2022-09-22T17:38:51.253Z,98802.97
2022-09-22T17:41:20.578Z,98802.25
2022-09-22T17:43:53.434Z,98808.75
2022-09-22T17:46:23.511Z,98805.47
2022-09-22T17:49:10.467Z,98811.38
2022-09-22T17:51:56.860Z,98804.88
2022-09-22T17:54:43.217Z,98806.91
2022-09-22T17:57:12.189Z,98810.91
2022-09-22T17:59:42.666Z,98806.53
2022-09-22T18:02:15.349Z,98803.13
2022-09-22T18:04:43.847Z,98816.25
2022-09-22T18:07:14.904Z,98816.13
2022-09-22T18:09:43.000Z,98810.56
2022-09-22T18:12:13.527Z,98808.69
2022-09-22T18:14:42.341Z,98816.19
2022-09-22T18:17:12.697Z,98817.13
2022-09-22T18:19:44.074Z,98813.25
2022-09-22T18:22:16.125Z,98820.66
2022-09-22T18:24:45.152Z,98818.03
2022-09-22T18:27:13.258Z,98813.03
2022-09-22T18:29:45.355Z,98813.00
2022-09-22T18:32:15.537Z,98818.03
2022-09-22T18:34:44.875Z,98819.59
2022-09-22T18:37:15.743Z,98821.94
2022-09-22T18:39:45.562Z,98820.00
2022-09-22T18:42:14.372Z,98817.16
2022-09-22T18:44:42.651Z,98816.28
2022-09-22T18:47:14.209Z,98824.06
2022-09-22T18:49:42.939Z,98823.13
2022-09-22T18:52:12.338Z,98821.25
2022-09-22T18:54:43.632Z,98821.81
2022-09-22T18:57:13.232Z,98825.97
2022-09-22T18:59:41.962Z,98822.09
2022-09-22T19:02:12.162Z,98823.69
2022-09-22T19:04:40.419Z,98835.06
2022-09-22T19:07:26.758Z,98842.31
2022-09-22T19:09:56.503Z,98837.66
2022-09-22T19:12:24.826Z,98836.28
2022-09-22T19:14:57.147Z,98839.81
2022-09-22T19:17:25.499Z,98841.72
2022-09-22T19:19:53.475Z,98848.13
2022-09-22T19:22:23.196Z,98847.09
2022-09-22T19:24:54.055Z,98847.94
2022-09-22T19:27:24.787Z,98849.09
2022-09-22T19:29:52.823Z,98847.50
2022-09-22T19:32:20.912Z,98846.34
2022-09-22T19:34:52.513Z,98841.00
2022-09-22T19:37:24.653Z,98847.66
2022-09-22T19:39:53.083Z,98841.47
2022-09-22T19:42:23.358Z,98844.75
2022-09-22T19:44:51.432Z,98844.47
2022-09-22T19:47:21.976Z,98841.81
2022-09-22T19:49:50.046Z,98848.75
2022-09-22T19:52:18.169Z,98853.34
2022-09-22T19:54:48.316Z,98850.59
2022-09-22T19:57:16.319Z,98859.28
2022-09-22T19:59:46.031Z,98847.66
2022-09-22T20:02:15.131Z,98852.44
2022-09-22T20:04:43.105Z,98849.28
2022-09-22T20:07:11.183Z,98851.59
2022-09-22T20:09:39.272Z,98847.06
2022-09-22T20:12:07.844Z,98860.06
2022-09-22T20:14:35.876Z,98867.81
2022-09-22T20:17:06.261Z,98854.31
2022-09-22T20:19:35.255Z,98856.72
2022-09-22T20:22:18.610Z,98845.41
2022-09-22T20:24:55.232Z,98843.69
2022-09-22T20:27:24.055Z,98842.91
2022-09-22T20:29:56.829Z,98847.91
2022-09-22T20:32:27.506Z,98851.28
2022-09-22T20:34:56.284Z,98842.09
2022-09-22T20:37:24.872Z,98848.56
2022-09-22T20:39:56.941Z,98850.84
2022-09-22T20:42:25.184Z,98857.53
2022-09-22T20:44:53.199Z,98863.75
2022-09-22T20:47:21.832Z,98861.69
2022-09-22T20:49:52.081Z,98847.38
2022-09-22T20:52:20.990Z,98842.19
2022-09-22T20:54:49.389Z,98832.19
2022-09-22T20:57:17.758Z,98836.59
2022-09-22T20:59:46.339Z,98847.59
2022-09-22T21:02:14.699Z,98844.91
2022-09-22T21:04:43.028Z,98850.09
2022-09-22T21:07:14.684Z,98849.03
2022-09-22T21:10:11.674Z,98856.94
2022-09-22T21:12:40.324Z,98853.00
2022-09-22T21:15:08.624Z,98863.31
2022-09-22T21:17:37.365Z,98873.25
2022-09-22T21:20:07.956Z,98873.88
2022-09-22T21:22:37.259Z,98874.03
2022-09-22T21:25:05.529Z,98876.72
2022-09-22T21:27:33.595Z,98876.59
2022-09-22T21:30:01.935Z,98875.31
2022-09-22T21:32:31.184Z,98869.47
2022-09-22T21:34:59.130Z,98863.25
2022-09-22T21:37:31.285Z,98859.97
2022-09-22T21:40:03.156Z,98859.88
2022-09-22T21:42:31.230Z,98868.06
2022-09-22T21:44:59.324Z,98863.38
2022-09-22T21:47:27.329Z,98856.69
2022-09-22T21:49:55.322Z,98852.44
2022-09-22T21:52:25.881Z,98857.34
2022-09-22T21:54:56.024Z,98855.50
2022-09-22T21:57:25.561Z,98862.06
2022-09-22T22:02:58.674Z,98852.72
2022-09-22T22:05:27.251Z,98847.88
2022-09-22T22:07:55.387Z,98845.91
2022-09-22T22:10:24.142Z,98853.88
2022-09-22T22:12:52.419Z,98856.53
2022-09-22T22:15:20.396Z,98857.34
2022-09-22T22:17:52.120Z,98851.28
2022-09-22T22:20:20.127Z,98856.91
2022-09-22T22:22:48.100Z,98854.16
2022-09-22T22:25:17.280Z,98864.41
2022-09-22T22:27:45.691Z,98860.38
2022-09-22T22:30:14.282Z,98856.28
2022-09-22T22:32:42.472Z,98855.69
2022-09-22T22:35:12.590Z,98857.78
2022-09-22T22:37:40.529Z,98846.63
2022-09-22T22:40:08.847Z,98852.88
2022-09-22T22:42:36.857Z,98860.13
2022-09-22T22:45:05.242Z,98858.59
2022-09-22T22:47:35.298Z,98861.31
2022-09-22T22:50:03.320Z,98854.38
2022-09-22T22:52:32.999Z,98861.66
2022-09-22T22:55:01.024Z,98860.19
2022-09-22T22:57:28.957Z,98819.44
2022-09-22T22:59:58.009Z,98836.31
2022-09-22T23:02:26.233Z,98838.97
2022-09-22T23:04:54.259Z,98839.25
2022-09-22T23:07:22.274Z,98832.69
2022-09-22T23:10:06.021Z,98827.75
2022-09-22T23:12:35.025Z,98819.75
2022-09-22T23:15:03.016Z,98823.06
2022-09-22T23:17:31.997Z,98826.53
2022-09-22T23:19:59.931Z,98827.19
2022-09-22T23:22:27.923Z,98825.94
2022-09-22T23:24:57.262Z,98826.44
2022-09-22T23:27:25.497Z,98795.34
2022-09-22T23:29:53.577Z,98811.06
2022-09-22T23:32:21.729Z,98814.44
2022-09-22T23:34:49.779Z,98803.72
2022-09-22T23:37:20.087Z,98802.50
2022-09-22T23:39:48.059Z,98803.31
2022-09-22T23:42:17.409Z,98802.06
2022-09-22T23:44:45.445Z,98804.31
2022-09-22T23:47:16.386Z,98793.13
2022-09-22T23:49:44.829Z,98803.28
2022-09-22T23:52:12.777Z,98806.59
2022-09-22T23:54:40.726Z,98801.28
2022-09-22T23:57:08.697Z,98812.84
2022-09-22T23:59:38.053Z,98822.72
